KCTZ/CTZ METAR and TAF weather

Enter ICAO airport designator
Station Type Date Time Source
KCTZ METAR 2019/04/25 21:40 UTC NOAA

KCTZ 252140Z AUTO 21006KT 10SM CLR 30/14 A2985 RMK AO2 T02960139


Station Type Date Time Source
KCTZ Decoded METAR 2019/04/25 21:40 UTC NOAA

Clinton, Sampson County Airport, NC, United States (KCTZ) 34-58-32N 078-21-53W
Apr 25, 2019 - 05:40 PM EDT / 2019.04.25 2140 UTC
Wind: from the SSW (210 degrees) at 7 MPH (6 KT):0
Visibility: 10 mile(s):0
Sky conditions: clear
Temperature: 85.3 F (29.6 C)
Dew Point: 57.0 F (13.9 C)
Relative Humidity: 38%
Pressure (altimeter): 29.85 in. Hg (1010 hPa)
ob: KCTZ 252140Z AUTO 21006KT 10SM CLR 30/14 A2985 RMK AO2 T02960139
cycle: 21

Station Type Date Time Source
KCTZ TAF UTC NOAA

Error!

Example: see airport list